sensor_id;sensor_type;location;lat;lon;timestamp;pressure;altitude;pressure_sealevel;temperature;humidity
61880;BME280;47817;52.798;27.544;2023-03-13T00:04:12;1019.6;;;-2;64.4
61880;BME280;47817;52.798;27.544;2023-03-13T00:09:02;1019.6;;;-2.1;64.5
61880;BME280;47817;52.798;27.544;2023-03-13T00:14:10;1019.7;;;-2.1;64.5
61880;BME280;47817;52.798;27.544;2023-03-13T00:18:46;1019.7;;;-2.1;64.7
61880;BME280;47817;52.798;27.544;2023-03-13T00:23:40;1019.7;;;-2.1;64.5
61880;BME280;47817;52.798;27.544;2023-03-13T00:29:10;1019.7;;;-2.2;64.5
61880;BME280;47817;52.798;27.544;2023-03-13T00:34:02;1019.8;;;-2.2;64.7
61880;BME280;47817;52.798;27.544;2023-03-13T00:39:10;1019.8;;;-2.3;64.9
61880;BME280;47817;52.798;27.544;2023-03-13T00:44:10;1019.9;;;-2.2;65.1
61880;BME280;47817;52.798;27.544;2023-03-13T00:48:28;1019.9;;;-2.3;64.9
61880;BME280;47817;52.798;27.544;2023-03-13T00:54:10;1020;;;-2.3;65
61880;BME280;47817;52.798;27.544;2023-03-13T00:59:02;1020;;;-2.3;65.1
61880;BME280;47817;52.798;27.544;2023-03-13T01:04:08;1020;;;-2.3;65.1
61880;BME280;47817;52.798;27.544;2023-03-13T01:08:40;1020;;;-2.3;64.9
61880;BME280;47817;52.798;27.544;2023-03-13T01:13:40;1020;;;-2.3;64.9
61880;BME280;47817;52.798;27.544;2023-03-13T01:18:47;1020;;;-2.3;65
61880;BME280;47817;52.798;27.544;2023-03-13T01:24:10;1020;;;-2.3;64.9
61880;BME280;47817;52.798;27.544;2023-03-13T01:29:02;1020.1;;;-2.3;64.8
61880;BME280;47817;52.798;27.544;2023-03-13T01:33:28;1020.1;;;-2.3;64.8
61880;BME280;47817;52.798;27.544;2023-03-13T01:38:40;1020;;;-2.3;64.7
61880;BME280;47817;52.798;27.544;2023-03-13T01:43:52;1020;;;-2.4;64.8
61880;BME280;47817;52.798;27.544;2023-03-13T01:49:01;1020;;;-2.3;64.9
61880;BME280;47817;52.798;27.544;2023-03-13T01:54:03;1020;;;-2.3;64.7
61880;BME280;47817;52.798;27.544;2023-03-13T01:58:58;1020;;;-2.4;64.8
61880;BME280;47817;52.798;27.544;2023-03-13T02:03:47;1020;;;-2.4;64.7
61880;BME280;47817;52.798;27.544;2023-03-13T02:08:29;1020;;;-2.3;64.8
61880;BME280;47817;52.798;27.544;2023-03-13T02:14:08;1020.1;;;-2.3;64.9
61880;BME280;47817;52.798;27.544;2023-03-13T02:19:03;1020.1;;;-2.3;65
61880;BME280;47817;52.798;27.544;2023-03-13T02:23:49;1020.1;;;-2.3;65
61880;BME280;47817;52.798;27.544;2023-03-13T02:28:46;1020.2;;;-2.4;65.5
61880;BME280;47817;52.798;27.544;2023-03-13T02:34:00;1020.2;;;-2.4;65.8
61880;BME280;47817;52.798;27.544;2023-03-13T02:39:10;1020.2;;;-2.5;65.8
61880;BME280;47817;52.798;27.544;2023-03-13T02:43:31;1020.3;;;-2.6;66.1
61880;BME280;47817;52.798;27.544;2023-03-13T02:48:30;1020.4;;;-2.6;66.4
61880;BME280;47817;52.798;27.544;2023-03-13T02:53:38;1020.5;;;-2.7;66.5
61880;BME280;47817;52.798;27.544;2023-03-13T02:58:44;1020.6;;;-2.8;66.7
61880;BME280;47817;52.798;27.544;2023-03-13T03:04:02;1020.7;;;-2.9;67
61880;BME280;47817;52.798;27.544;2023-03-13T03:09:00;1020.8;;;-2.9;67.1
61880;BME280;47817;52.798;27.544;2023-03-13T03:13:46;1020.8;;;-3;67.3
61880;BME280;47817;52.798;27.544;2023-03-13T03:18:40;1020.9;;;-3;67.4
61880;BME280;47817;52.798;27.544;2023-03-13T03:23:38;1020.9;;;-3;67.6
61880;BME280;47817;52.798;27.544;2023-03-13T03:29:10;1020.9;;;-3;67.8
61880;BME280;47817;52.798;27.544;2023-03-13T03:33:50;1020.9;;;-3.1;68.1
61880;BME280;47817;52.798;27.544;2023-03-13T03:38:46;1021;;;-3.1;68.4
61880;BME280;47817;52.798;27.544;2023-03-13T03:43:40;1021;;;-3.1;68.9
61880;BME280;47817;52.798;27.544;2023-03-13T03:48:28;1021;;;-3.2;69.3
61880;BME280;47817;52.798;27.544;2023-03-13T03:54:10;1021.1;;;-3.2;69.8
61880;BME280;47817;52.798;27.544;2023-03-13T03:58:40;1021.1;;;-3.1;70
61880;BME280;47817;52.798;27.544;2023-03-13T04:03:38;1021.1;;;-3.2;70.6
61880;BME280;47817;52.798;27.544;2023-03-13T04:08:46;1021.1;;;-3.2;70.9
61880;BME280;47817;52.798;27.544;2023-03-13T04:13:38;1021;;;-3.2;71.2
61880;BME280;47817;52.798;27.544;2023-03-13T04:19:10;1021.1;;;-3.2;71.5
61880;BME280;47817;52.798;27.544;2023-03-13T04:24:02;1021.1;;;-3.2;71.8
61880;BME280;47817;52.798;27.544;2023-03-13T04:28:28;1021.1;;;-3.1;72.1
61880;BME280;47817;52.798;27.544;2023-03-13T04:33:44;1021.1;;;-3.1;72.4
61880;BME280;47817;52.798;27.544;2023-03-13T04:38:28;1021.1;;;-3;72.5
61880;BME280;47817;52.798;27.544;2023-03-13T04:44:08;1021.2;;;-3;72.6
61880;BME280;47817;52.798;27.544;2023-03-13T04:49:02;1021.2;;;-2.9;72.7
61880;BME280;47817;52.798;27.544;2023-03-13T04:53:46;1021.2;;;-2.9;72.7
61880;BME280;47817;52.798;27.544;2023-03-13T04:58:36;1021.3;;;-2.8;72.7
61880;BME280;47817;52.798;27.544;2023-03-13T05:04:08;1021.3;;;-2.7;72.7
61880;BME280;47817;52.798;27.544;2023-03-13T05:09:08;1021.4;;;-2.6;72.9
61880;BME280;47817;52.798;27.544;2023-03-13T05:14:00;1021.3;;;-2.4;72.9
61880;BME280;47817;52.798;27.544;2023-03-13T05:19:08;1021.4;;;-2.3;72.9
61880;BME280;47817;52.798;27.544;2023-03-13T05:23:28;1021.4;;;-2.1;72.8
61880;BME280;47817;52.798;27.544;2023-03-13T05:28:28;1021.3;;;-1.9;72.6
61880;BME280;47817;52.798;27.544;2023-03-13T05:34:12;1021.3;;;-1.7;72.3
61880;BME280;47817;52.798;27.544;2023-03-13T05:39:12;1021.3;;;-1.5;71.9
61880;BME280;47817;52.798;27.544;2023-03-13T05:44:12;1021.4;;;-1.3;71.5
61880;BME280;47817;52.798;27.544;2023-03-13T05:48:40;1021.3;;;-1.1;70.9
61880;BME280;47817;52.798;27.544;2023-03-13T05:53:40;1021.3;;;-1;70.4
61880;BME280;47817;52.798;27.544;2023-03-13T05:59:10;1021.3;;;-0.8;70.3
61880;BME280;47817;52.798;27.544;2023-03-13T06:04:00;1021.4;;;-0.7;70
61880;BME280;47817;52.798;27.544;2023-03-13T06:09:10;1021.4;;;-0.6;69.5
61880;BME280;47817;52.798;27.544;2023-03-13T06:13:28;1021.3;;;-0.4;69
61880;BME280;47817;52.798;27.544;2023-03-13T06:18:44;1021.4;;;-0.2;68.7
61880;BME280;47817;52.798;27.544;2023-03-13T06:24:08;1021.5;;;-0.1;68.2
61880;BME280;47817;52.798;27.544;2023-03-13T06:28:50;1021.6;;;0.1;67.6
61880;BME280;47817;52.798;27.544;2023-03-13T06:34:09;1021.5;;;0.2;66.8
61880;BME280;47817;52.798;27.544;2023-03-13T06:38:28;1021.5;;;0.4;66.7
61880;BME280;47817;52.798;27.544;2023-03-13T06:43:44;1021.6;;;0.5;66.4
61880;BME280;47817;52.798;27.544;2023-03-13T06:49:10;1021.6;;;0.6;65.7
61880;BME280;47817;52.798;27.544;2023-03-13T06:54:02;1021.5;;;0.9;65.3
61880;BME280;47817;52.798;27.544;2023-03-13T06:59:10;1021.5;;;1.2;64.8
61880;BME280;47817;52.798;27.544;2023-03-13T07:03:36;1021.4;;;1.4;64.6
61880;BME280;47817;52.798;27.544;2023-03-13T07:08:58;1021.3;;;1.5;63.8
61880;BME280;47817;52.798;27.544;2023-03-13T07:14:10;1021.3;;;1.8;62.9
61880;BME280;47817;52.798;27.544;2023-03-13T07:19:02;1021.2;;;2.1;62.8
61880;BME280;47817;52.798;27.544;2023-03-13T07:24:00;1021.1;;;2.5;62
61880;BME280;47817;52.798;27.544;2023-03-13T07:28:34;1021;;;2.8;61.7
61880;BME280;47817;52.798;27.544;2023-03-13T07:33:36;1020.9;;;3;61
61880;BME280;47817;52.798;27.544;2023-03-13T07:39:08;1021;;;3.3;60.5
61880;BME280;47817;52.798;27.544;2023-03-13T07:44:02;1020.9;;;3.4;60.4
61880;BME280;47817;52.798;27.544;2023-03-13T07:49:10;1020.9;;;3.5;60.2
61880;BME280;47817;52.798;27.544;2023-03-13T07:53:46;1020.9;;;3.7;60.1
61880;BME280;47817;52.798;27.544;2023-03-13T07:58:46;1020.8;;;3.8;59.9
61880;BME280;47817;52.798;27.544;2023-03-13T08:04:11;1020.7;;;4.1;59.3
61880;BME280;47817;52.798;27.544;2023-03-13T08:09:02;1020.7;;;4.4;60
61880;BME280;47817;52.798;27.544;2023-03-13T08:14:08;1020.6;;;4.6;59.5
61880;BME280;47817;52.798;27.544;2023-03-13T08:18:39;1020.6;;;4.9;59.4
61880;BME280;47817;52.798;27.544;2023-03-13T08:23:46;1020.5;;;5.1;58.9
61880;BME280;47817;52.798;27.544;2023-03-13T08:29:09;1020.4;;;5.5;58.5
61880;BME280;47817;52.798;27.544;2023-03-13T08:34:00;1020.4;;;5.6;57.7
61880;BME280;47817;52.798;27.544;2023-03-13T08:39:10;1020.3;;;5.7;57.8
61880;BME280;47817;52.798;27.544;2023-03-13T08:43:28;1020.2;;;5.9;57.1
61880;BME280;47817;52.798;27.544;2023-03-13T08:48:47;1020.2;;;6.2;56.6
61880;BME280;47817;52.798;27.544;2023-03-13T08:54:00;1020.2;;;6.6;56.2
61880;BME280;47817;52.798;27.544;2023-03-13T08:59:01;1020.1;;;6.8;55.7
61880;BME280;47817;52.798;27.544;2023-03-13T09:03:48;1019.9;;;7.1;55.3
61880;BME280;47817;52.798;27.544;2023-03-13T09:08:46;1020;;;7.4;55.2
61880;BME280;47817;52.798;27.544;2023-03-13T09:14:08;1019.9;;;7.6;53.6
61880;BME280;47817;52.798;27.544;2023-03-13T09:18:38;1019.8;;;8;53.9
61880;BME280;47817;52.798;27.544;2023-03-13T09:23:46;1019.7;;;8.1;53.5
61880;BME280;47817;52.798;27.544;2023-03-13T09:28:56;1019.6;;;8.5;52.8
61880;BME280;47817;52.798;27.544;2023-03-13T09:34:00;1019.5;;;8.5;52.8
61880;BME280;47817;52.798;27.544;2023-03-13T09:39:06;1019.4;;;8.6;52.6
61880;BME280;47817;52.798;27.544;2023-03-13T09:43:36;1019.3;;;8.5;52.3
61880;BME280;47817;52.798;27.544;2023-03-13T09:48:37;1019.3;;;8.9;51.8
61880;BME280;47817;52.798;27.544;2023-03-13T09:53:55;1019.2;;;9.3;51.2
61880;BME280;47817;52.798;27.544;2023-03-13T09:58:28;1019.2;;;9;50.8
61880;BME280;47817;52.798;27.544;2023-03-13T10:04:11;1019.2;;;8.9;51
61880;BME280;47817;52.798;27.544;2023-03-13T10:08:29;1019.1;;;9.2;50.4
61880;BME280;47817;52.798;27.544;2023-03-13T10:13:39;1019;;;9.4;50.1
61880;BME280;47817;52.798;27.544;2023-03-13T10:18:47;1019;;;9.5;49.5
61880;BME280;47817;52.798;27.544;2023-03-13T10:23:39;1018.9;;;9.4;49.4
61880;BME280;47817;52.798;27.544;2023-03-13T10:29:18;1018.9;;;9.8;48.6
61880;BME280;47817;52.798;27.544;2023-03-13T10:33:38;1018.8;;;9.9;47.8
61880;BME280;47817;52.798;27.544;2023-03-13T10:39:11;1018.5;;;9.7;48
61880;BME280;47817;52.798;27.544;2023-03-13T10:43:59;1018.6;;;9.7;47.8
61880;BME280;47817;52.798;27.544;2023-03-13T10:48:53;1018.6;;;10;47.5
61880;BME280;47817;52.798;27.544;2023-03-13T10:54:14;1018.6;;;9.7;47.1
61880;BME280;47817;52.798;27.544;2023-03-13T10:58:49;1018.7;;;9.3;47
61880;BME280;47817;52.798;27.544;2023-03-13T11:03:51;1018.6;;;8.9;47.2
61880;BME280;47817;52.798;27.544;2023-03-13T11:08:48;1018.5;;;8.7;47.5
61880;BME280;47817;52.798;27.544;2023-03-13T11:13:50;1018.4;;;8.8;47.5
61880;BME280;47817;52.798;27.544;2023-03-13T11:19:17;1018.4;;;9.1;47.3
61880;BME280;47817;52.798;27.544;2023-03-13T11:23:29;1018.4;;;9;47.3
61880;BME280;47817;52.798;27.544;2023-03-13T11:28:57;1018.4;;;8.9;47.5
61880;BME280;47817;52.798;27.544;2023-03-13T11:33:57;1018.4;;;8.6;47.9
61880;BME280;47817;52.798;27.544;2023-03-13T11:38:39;1018.3;;;8.5;48.1
61880;BME280;47817;52.798;27.544;2023-03-13T11:44:00;1018.3;;;8.4;48.4
61880;BME280;47817;52.798;27.544;2023-03-13T11:48:34;1018.4;;;8.1;48.8
61880;BME280;47817;52.798;27.544;2023-03-13T11:53:33;1018.3;;;7.9;49.1
61880;BME280;47817;52.798;27.544;2023-03-13T11:59:01;1018.3;;;7.5;49.5
61880;BME280;47817;52.798;27.544;2023-03-13T12:03:39;1018.4;;;7.4;49.9
61880;BME280;47817;52.798;27.544;2023-03-13T12:09:09;1018.4;;;7.2;50.4
61880;BME280;47817;52.798;27.544;2023-03-13T12:13:29;1018.4;;;7;50.9
61880;BME280;47817;52.798;27.544;2023-03-13T12:18:46;1018.3;;;6.7;51.3
61880;BME280;47817;52.798;27.544;2023-03-13T12:23:57;1018.3;;;6.6;51.8
61880;BME280;47817;52.798;27.544;2023-03-13T12:28:30;1018.2;;;6.5;52.2
61880;BME280;47817;52.798;27.544;2023-03-13T12:34:11;1018.2;;;6.4;52.9
61880;BME280;47817;52.798;27.544;2023-03-13T12:38:47;1018.2;;;6.3;53.4
61880;BME280;47817;52.798;27.544;2023-03-13T12:43:47;1018.2;;;6.2;54.1
61880;BME280;47817;52.798;27.544;2023-03-13T12:49:01;1018.2;;;6.1;54.7
61880;BME280;47817;52.798;27.544;2023-03-13T12:58:58;1018.1;;;6.2;55.4
61880;BME280;47817;52.798;27.544;2023-03-13T13:03:43;1018;;;6.2;56
61880;BME280;47817;52.798;27.544;2023-03-13T13:08:30;1017.8;;;6.4;56.4
61880;BME280;47817;52.798;27.544;2023-03-13T13:13:56;1017.8;;;6.4;56.7
61880;BME280;47817;52.798;27.544;2023-03-13T13:18:38;1017.8;;;6.4;57.2
61880;BME280;47817;52.798;27.544;2023-03-13T13:24:48;1017.7;;;6.4;57.3
61880;BME280;47817;52.798;27.544;2023-03-13T13:28:38;1017.7;;;6.5;57.4
61880;BME280;47817;52.798;27.544;2023-03-13T13:33:52;1017.6;;;6.3;57.9
61880;BME280;47817;52.798;27.544;2023-03-13T13:38:58;1017.5;;;6.3;58.1
61880;BME280;47817;52.798;27.544;2023-03-13T13:43:29;1017.5;;;6.2;58.4
61880;BME280;47817;52.798;27.544;2023-03-13T13:49:13;1017.5;;;6;58.9
61880;BME280;47817;52.798;27.544;2023-03-13T13:53:29;1017.5;;;5.9;59.5
61880;BME280;47817;52.798;27.544;2023-03-13T13:58:40;1017.4;;;5.7;60.3
61880;BME280;47817;52.798;27.544;2023-03-13T14:04:02;1017.3;;;5.6;60.9
61880;BME280;47817;52.798;27.544;2023-03-13T14:08:29;1017.2;;;5.5;61.5
61880;BME280;47817;52.798;27.544;2023-03-13T14:14:12;1017.1;;;5.5;62
61880;BME280;47817;52.798;27.544;2023-03-13T14:18:50;1017;;;5.5;62.4
61880;BME280;47817;52.798;27.544;2023-03-13T14:23:30;1017;;;5.6;62.9
61880;BME280;47817;52.798;27.544;2023-03-13T14:28:53;1016.9;;;5.4;63.6
61880;BME280;47817;52.798;27.544;2023-03-13T14:33:40;1016.9;;;5.3;64.5
61880;BME280;47817;52.798;27.544;2023-03-13T14:39:15;1016.8;;;5.3;65.4
61880;BME280;47817;52.798;27.544;2023-03-13T14:43:50;1016.7;;;5.2;66.2
61880;BME280;47817;52.798;27.544;2023-03-13T14:48:29;1016.7;;;5.2;66.7
61880;BME280;47817;52.798;27.544;2023-03-13T14:53:54;1016.6;;;5.2;67.2
61880;BME280;47817;52.798;27.544;2023-03-13T14:58:28;1016.5;;;5.1;67.9
61880;BME280;47817;52.798;27.544;2023-03-13T15:03:31;1016.4;;;5.1;68.5
61880;BME280;47817;52.798;27.544;2023-03-13T15:08:39;1016.3;;;5.1;68.8
61880;BME280;47817;52.798;27.544;2023-03-13T15:13:40;1016.3;;;5;69.4
61880;BME280;47817;52.798;27.544;2023-03-13T15:18:56;1016.2;;;4.9;69.9
61880;BME280;47817;52.798;27.544;2023-03-13T15:23:28;1016.2;;;4.9;70.4
61880;BME280;47817;52.798;27.544;2023-03-13T15:29:12;1016.1;;;4.9;70.8
61880;BME280;47817;52.798;27.544;2023-03-13T15:33:40;1016;;;4.8;71.2
61880;BME280;47817;52.798;27.544;2023-03-13T15:38:52;1015.9;;;4.8;71.8
61880;BME280;47817;52.798;27.544;2023-03-13T15:43:58;1015.9;;;4.8;72.3
61880;BME280;47817;52.798;27.544;2023-03-13T15:48:40;1015.8;;;4.8;72.7
61880;BME280;47817;52.798;27.544;2023-03-13T15:54:12;1015.8;;;4.8;72.9
61880;BME280;47817;52.798;27.544;2023-03-13T15:58:28;1015.8;;;4.7;73.2
61880;BME280;47817;52.798;27.544;2023-03-13T16:03:50;1015.7;;;4.8;73.6
61880;BME280;47817;52.798;27.544;2023-03-13T16:08:59;1015.8;;;4.8;73.8
61880;BME280;47817;52.798;27.544;2023-03-13T16:13:28;1015.8;;;4.8;74
61880;BME280;47817;52.798;27.544;2023-03-13T16:19:12;1015.7;;;4.8;74.1
61880;BME280;47817;52.798;27.544;2023-03-13T16:23:28;1015.6;;;4.8;74.4
61880;BME280;47817;52.798;27.544;2023-03-13T16:28:28;1015.6;;;4.8;74.5
61880;BME280;47817;52.798;27.544;2023-03-13T16:34:12;1015.7;;;4.8;74.7
61880;BME280;47817;52.798;27.544;2023-03-13T16:38:38;1015.7;;;4.8;75
61880;BME280;47817;52.798;27.544;2023-03-13T16:44:12;1015.7;;;4.8;75.1
61880;BME280;47817;52.798;27.544;2023-03-13T16:48:38;1015.7;;;4.9;75.2
61880;BME280;47817;52.798;27.544;2023-03-13T16:53:58;1015.6;;;4.9;75.3
61880;BME280;47817;52.798;27.544;2023-03-13T16:59:13;1015.6;;;4.9;75.4
61880;BME280;47817;52.798;27.544;2023-03-13T17:03:50;1015.5;;;4.9;75.6
61880;BME280;47817;52.798;27.544;2023-03-13T17:09:11;1015.5;;;4.9;76
61880;BME280;47817;52.798;27.544;2023-03-13T17:13:51;1015.4;;;4.9;76.2
61880;BME280;47817;52.798;27.544;2023-03-13T17:18:52;1015.3;;;4.9;76.6
61880;BME280;47817;52.798;27.544;2023-03-13T17:23:38;1015.2;;;4.9;76.8
61880;BME280;47817;52.798;27.544;2023-03-13T17:28:40;1015.2;;;4.9;77.3
61880;BME280;47817;52.798;27.544;2023-03-13T17:34:12;1015.2;;;4.9;77.5
61880;BME280;47817;52.798;27.544;2023-03-13T17:38:28;1015.1;;;4.9;77.2
61880;BME280;47817;52.798;27.544;2023-03-13T17:44:04;1015.1;;;4.9;77.7
61880;BME280;47817;52.798;27.544;2023-03-13T17:48:45;1015;;;4.9;78.1
61880;BME280;47817;52.798;27.544;2023-03-13T17:53:28;1014.9;;;4.9;78.3
61880;BME280;47817;52.798;27.544;2023-03-13T17:59:11;1014.9;;;5;78.5
61880;BME280;47817;52.798;27.544;2023-03-13T18:03:28;1014.7;;;5;78.6
61880;BME280;47817;52.798;27.544;2023-03-13T18:08:51;1014.7;;;5;78.7
61880;BME280;47817;52.798;27.544;2023-03-13T18:14:12;1014.7;;;5.1;78.7
61880;BME280;47817;52.798;27.544;2023-03-13T18:18:28;1014.6;;;5.1;78.9
61880;BME280;47817;52.798;27.544;2023-03-13T18:23:38;1014.6;;;5.1;79
61880;BME280;47817;52.798;27.544;2023-03-13T18:28:47;1014.6;;;5.1;79.1
61880;BME280;47817;52.798;27.544;2023-03-13T18:34:13;1014.6;;;5.1;79.1
61880;BME280;47817;52.798;27.544;2023-03-13T18:38:38;1014.5;;;5.2;79.3
61880;BME280;47817;52.798;27.544;2023-03-13T18:43:28;1014.4;;;5.1;79.6
61880;BME280;47817;52.798;27.544;2023-03-13T18:49:12;1014.4;;;5.2;79.8
61880;BME280;47817;52.798;27.544;2023-03-13T18:54:12;1014.4;;;5.2;79.9
61880;BME280;47817;52.798;27.544;2023-03-13T18:58:46;1014.3;;;5.2;80
61880;BME280;47817;52.798;27.544;2023-03-13T19:03:28;1014.3;;;5.3;80
61880;BME280;47817;52.798;27.544;2023-03-13T19:09:13;1014.2;;;5.3;80.1
61880;BME280;47817;52.798;27.544;2023-03-13T19:13:46;1014.1;;;5.3;80.4
61880;BME280;47817;52.798;27.544;2023-03-13T19:18:28;1014;;;5.3;80.7
61880;BME280;47817;52.798;27.544;2023-03-13T19:23:56;1014.1;;;5.4;80.8
61880;BME280;47817;52.798;27.544;2023-03-13T19:28:58;1014;;;5.4;80.9
61880;BME280;47817;52.798;27.544;2023-03-13T19:33:28;1014;;;5.5;81
61880;BME280;47817;52.798;27.544;2023-03-13T19:38:48;1013.9;;;5.6;81
61880;BME280;47817;52.798;27.544;2023-03-13T19:44:10;1013.9;;;5.6;80.8
61880;BME280;47817;52.798;27.544;2023-03-13T19:48:38;1013.9;;;5.7;81
61880;BME280;47817;52.798;27.544;2023-03-13T19:54:13;1013.9;;;5.8;81
61880;BME280;47817;52.798;27.544;2023-03-13T19:59:05;1013.8;;;5.9;81
61880;BME280;47817;52.798;27.544;2023-03-13T20:03:28;1013.7;;;6;80.9
61880;BME280;47817;52.798;27.544;2023-03-13T20:08:59;1013.7;;;6.1;80.9
61880;BME280;47817;52.798;27.544;2023-03-13T20:13:51;1013.6;;;6.2;80.9
61880;BME280;47817;52.798;27.544;2023-03-13T20:18:28;1013.5;;;6.2;80.8
61880;BME280;47817;52.798;27.544;2023-03-13T20:23:58;1013.4;;;6.3;80.7
61880;BME280;47817;52.798;27.544;2023-03-13T20:29:12;1013.4;;;6.5;80.6
61880;BME280;47817;52.798;27.544;2023-03-13T20:33:50;1013.4;;;6.5;80.5
61880;BME280;47817;52.798;27.544;2023-03-13T20:38:46;1013.3;;;6.6;80.4
61880;BME280;47817;52.798;27.544;2023-03-13T20:44:12;1013.1;;;6.7;80.3
61880;BME280;47817;52.798;27.544;2023-03-13T20:49:04;1013.1;;;6.7;80.4
61880;BME280;47817;52.798;27.544;2023-03-13T20:53:44;1013;;;6.8;80.5
61880;BME280;47817;52.798;27.544;2023-03-13T20:58:28;1013;;;6.8;80.6
61880;BME280;47817;52.798;27.544;2023-03-13T21:04:12;1012.8;;;6.8;80.4
61880;BME280;47817;52.798;27.544;2023-03-13T21:08:50;1012.7;;;6.9;80
61880;BME280;47817;52.798;27.544;2023-03-13T21:13:40;1012.7;;;6.9;79.7
61880;BME280;47817;52.798;27.544;2023-03-13T21:19:12;1012.6;;;7;79.4
61880;BME280;47817;52.798;27.544;2023-03-13T21:23:28;1012.6;;;7;79.2
61880;BME280;47817;52.798;27.544;2023-03-13T21:28:28;1012.5;;;7;79.1
61880;BME280;47817;52.798;27.544;2023-03-13T21:33:58;1012.5;;;7;79
61880;BME280;47817;52.798;27.544;2023-03-13T21:39:12;1012.5;;;7.1;78.9
61880;BME280;47817;52.798;27.544;2023-03-13T21:43:28;1012.4;;;7.1;78.6
61880;BME280;47817;52.798;27.544;2023-03-13T21:48:39;1012.4;;;7.1;78.2
61880;BME280;47817;52.798;27.544;2023-03-13T21:54:12;1012.3;;;7.1;78.2
61880;BME280;47817;52.798;27.544;2023-03-13T21:59:12;1012.3;;;7.2;78
61880;BME280;47817;52.798;27.544;2023-03-13T22:03:44;1012.3;;;7.2;77.9
61880;BME280;47817;52.798;27.544;2023-03-13T22:08:51;1012.3;;;7.3;77.8
61880;BME280;47817;52.798;27.544;2023-03-13T22:14:12;1012.2;;;7.3;77.6
61880;BME280;47817;52.798;27.544;2023-03-13T22:18:58;1012.2;;;7.3;77.6
61880;BME280;47817;52.798;27.544;2023-03-13T22:23:28;1012.2;;;7.3;77.6
61880;BME280;47817;52.798;27.544;2023-03-13T22:28:28;1012.1;;;7.3;77.5
61880;BME280;47817;52.798;27.544;2023-03-13T22:33:58;1012;;;7.4;77.5
61880;BME280;47817;52.798;27.544;2023-03-13T22:38:38;1012;;;7.4;77.4
61880;BME280;47817;52.798;27.544;2023-03-13T22:43:29;1011.9;;;7.4;77.2
61880;BME280;47817;52.798;27.544;2023-03-13T22:49:12;1011.8;;;7.4;77.1
61880;BME280;47817;52.798;27.544;2023-03-13T22:53:41;1011.8;;;7.4;77
61880;BME280;47817;52.798;27.544;2023-03-13T22:59:12;1011.8;;;7.5;76.8
61880;BME280;47817;52.798;27.544;2023-03-13T23:04:04;1011.8;;;7.5;76.5
61880;BME280;47817;52.798;27.544;2023-03-13T23:08:51;1011.8;;;7.5;76.1
61880;BME280;47817;52.798;27.544;2023-03-13T23:13:44;1011.8;;;7.5;75.7
61880;BME280;47817;52.798;27.544;2023-03-13T23:18:28;1011.8;;;7.6;75.4
61880;BME280;47817;52.798;27.544;2023-03-13T23:23:39;1011.9;;;7.6;75.1
61880;BME280;47817;52.798;27.544;2023-03-13T23:28:56;1012;;;7.7;74.9
61880;BME280;47817;52.798;27.544;2023-03-13T23:34:08;1011.9;;;7.7;74.8
61880;BME280;47817;52.798;27.544;2023-03-13T23:38:56;1011.9;;;7.7;74.7
61880;BME280;47817;52.798;27.544;2023-03-13T23:44:10;1011.9;;;7.7;74.4
61880;BME280;47817;52.798;27.544;2023-03-13T23:49:10;1012;;;7.8;74.1
61880;BME280;47817;52.798;27.544;2023-03-13T23:54:05;1012;;;7.7;73.7
61880;BME280;47817;52.798;27.544;2023-03-13T23:58:28;1012;;;7.7;73.5
